Time;durP1;ratioP1;P1;durP2;ratioP2;P2;SDS_P1;SDS_P2;PMS_P1;PMS_P2;Temp;Humidity;BMP_temperature;BMP_pressure;BME280_temperature;BME280_humidity;BME280_pressure;Samples;Min_cycle;Max_cycle;Signal;HPM_P1;HPM_P2
2023/07/23 00:01:51;;;;;;;11.52;10.38;;;;;;;25.62;100.00;-18428.34;5074732;28;20658;-65
2023/07/23 00:04:18;;;;;;;11.35;10.23;;;;;;;25.63;100.00;-18428.72;5074624;28;20194;-63
2023/07/23 00:06:46;;;;;;;11.35;10.57;;;;;;;25.72;100.00;-18430.84;5074727;28;20243;-63
2023/07/23 00:09:13;;;;;;;11.10;9.73;;;;;;;25.59;100.00;-18427.75;5074589;28;20185;-63
2023/07/23 00:11:40;;;;;;;11.82;10.75;;;;;;;25.66;100.00;-18429.41;5074730;28;20658;-63
2023/07/23 00:14:07;;;;;;;12.68;11.43;;;;;;;25.68;100.00;-18429.78;5074425;28;20189;-63
2023/07/23 00:16:34;;;;;;;12.70;11.45;;;;;;;25.63;100.00;-18428.59;5074295;28;20181;-63
2023/07/23 00:19:00;;;;;;;14.77;11.82;;;;;;;25.74;100.00;-18431.19;5074260;28;20185;-63
2023/07/23 00:21:27;;;;;;;12.35;11.30;;;;;;;25.84;100.00;-18433.66;5074579;28;20639;-63
2023/07/23 00:23:55;;;;;;;13.52;12.05;;;;;;;25.86;100.00;-18434.16;5074200;28;20188;-63
2023/07/23 00:26:22;;;;;;;16.17;12.32;;;;;;;25.89;100.00;-18434.84;5074097;28;20223;-63
2023/07/23 00:28:49;;;;;;;15.68;12.10;;;;;;;25.88;100.00;-18434.50;5074462;28;20631;-63
2023/07/23 00:31:16;;;;;;;13.65;12.45;;;;;;;25.80;100.00;-18432.63;5074623;28;20181;-63
2023/07/23 00:33:43;;;;;;;15.68;14.05;;;;;;;25.85;100.00;-18433.78;5074406;28;20560;-63
2023/07/23 00:36:10;;;;;;;13.80;12.45;;;;;;;25.87;100.00;-18434.25;5074055;28;20189;-63
2023/07/23 00:38:37;;;;;;;14.60;13.13;;;;;;;25.79;100.00;-18432.38;5074245;28;20208;-62
2023/07/23 00:41:05;;;;;;;16.15;13.02;;;;;;;25.84;100.00;-18433.56;5074306;28;20583;-63
2023/07/23 00:43:32;;;;;;;16.98;12.25;;;;;;;25.95;100.00;-18436.03;5074250;28;20590;-62
2023/07/23 00:45:59;;;;;;;12.40;11.15;;;;;;;25.82;100.00;-16803.13;5074036;28;20293;-63
2023/07/23 00:48:25;;;;;;;13.88;11.05;;;;;;;25.58;100.00;-9953.41;5073822;28;20188;-62
2023/07/23 00:50:52;;;;;;;11.68;10.43;;;;;;;25.58;100.00;-9300.72;5073650;28;20181;-64
2023/07/23 00:53:20;;;;;;;11.85;10.65;;;;;;;25.65;100.00;-10606.69;5074319;28;20240;-63
2023/07/23 00:55:48;;;;;;;13.25;11.00;;;;;;;25.68;100.00;-13216.03;5073604;28;20208;-64
2023/07/23 00:58:16;;;;;;;18.60;11.90;;;;;;;25.56;100.00;-16146.41;5073560;28;20200;-63
2023/07/23 01:00:43;;;;;;;11.55;10.57;;;;;;;25.27;100.00;-16140.59;5073442;28;20189;-63
2023/07/23 01:03:10;;;;;;;17.77;12.65;;;;;;;25.32;100.00;-17443.44;5073836;28;20610;-62
2023/07/23 01:05:39;;;;;;;23.80;13.55;;;;;;;25.17;100.00;-18090.69;5072790;28;20199;-62
2023/07/23 01:08:08;;;;;;;18.92;13.02;;;;;;;25.03;100.00;-18412.72;5073325;28;20181;-63
2023/07/23 01:10:36;;;;;;;25.15;13.13;;;;;;;25.02;100.00;-18414.50;5056416;28;20220;-63
2023/07/23 01:13:03;;;;;;;18.15;12.93;;;;;;;24.84;100.00;-18410.13;5073155;28;20189;-63
2023/07/23 01:15:33;;;;;;;17.83;12.13;;;;;;;24.78;100.00;-18408.81;5073261;28;20288;-62
2023/07/23 01:18:01;;;;;;;20.13;11.98;;;;;;;24.40;100.00;-18399.81;5073124;28;20189;-62
2023/07/23 01:20:28;;;;;;;16.52;10.85;;;;;;;24.20;100.00;-18395.22;5073108;28;20181;-63
2023/07/23 01:22:56;;;;;;;11.38;10.25;;;;;;;24.06;100.00;-18065.44;5072959;28;20200;-63
2023/07/23 01:25:23;;;;;;;15.52;9.70;;;;;;;23.98;100.00;-17414.22;5073248;28;20267;-63
2023/07/23 01:27:50;;;;;;;13.50;9.82;;;;;;;23.99;100.00;-17414.34;5072697;28;20219;-63
2023/07/23 01:30:17;;;;;;;18.33;10.77;;;;;;;24.02;100.00;-17415.09;5073051;28;20280;-63
2023/07/23 01:32:44;;;;;;;12.05;11.00;;;;;;;23.99;100.00;-17414.34;5073159;28;20295;-62
2023/07/23 01:35:13;;;;;;;13.23;8.90;;;;;;;23.66;100.00;-16433.38;5072702;28;20189;-63
2023/07/23 01:37:40;;;;;;;18.33;10.32;;;;;;;23.46;100.00;-16753.75;5072862;28;20229;-62
2023/07/23 01:40:09;;;;;;;17.33;10.80;;;;;;;23.10;100.00;-17394.81;5072962;28;20620;-63
2023/07/23 01:42:37;;;;;;;20.40;12.15;;;;;;;23.14;100.00;-18044.19;5072684;28;20221;-63
2023/07/23 01:45:05;;;;;;;18.27;12.20;;;;;;;22.91;100.00;-17714.88;5072558;28;20369;-63
2023/07/23 01:47:31;;;;;;;21.02;12.68;;;;;;;;;;5072563;28;20208;-63
2023/07/23 01:49:58;;;;;;;23.17;12.32;;;;;;;22.96;100.00;-18040.03;5072414;28;20192;-64
2023/07/23 01:52:25;;;;;;;24.90;12.88;;;;;;;23.02;100.00;-17717.25;5072384;28;20232;-63
2023/07/23 01:54:52;;;;;;;18.85;13.32;;;;;;;23.21;100.00;-18370.06;5072335;28;20200;-63
2023/07/23 01:57:20;;;;;;;28.02;12.93;;;;;;;23.33;100.00;-18372.91;5072735;28;20177;-63
2023/07/23 01:59:47;;;;;;;14.52;12.50;;;;;;;23.39;100.00;-18374.31;5072560;28;20185;-63
2023/07/23 02:02:14;;;;;;;22.50;12.68;;;;;;;23.21;100.00;-18045.81;5073080;28;20284;-63
2023/07/23 02:04:41;;;;;;;21.58;13.45;;;;;;;23.46;100.00;-18376.00;5072157;28;20189;-62
2023/07/23 02:07:08;;;;;;;15.00;12.82;;;;;;;23.55;100.00;-18053.59;5072694;28;20225;-62
2023/07/23 02:09:34;;;;;;;23.02;13.35;;;;;;;23.54;100.00;-17729.06;5072175;28;20208;-63
2023/07/23 02:12:02;;;;;;;18.00;12.80;;;;;;;23.46;100.00;-17727.13;5072593;28;20558;-63
2023/07/23 02:14:30;;;;;;;15.65;12.25;;;;;;;23.56;100.00;-17729.41;5072428;28;20189;-63
2023/07/23 02:16:57;;;;;;;18.67;11.98;;;;;;;23.65;100.00;-17731.44;5071143;28;20185;-63
2023/07/23 02:19:24;;;;;;;15.95;11.43;;;;;;;23.68;100.00;-17407.69;5072531;28;20192;-63
2023/07/23 02:21:51;;;;;;;16.42;10.30;;;;;;;23.52;100.00;-17404.03;5072011;28;20193;-63
2023/07/23 02:24:18;;;;;;;13.40;8.63;;;;;;;23.71;100.00;-17408.25;5072285;28;20195;-63
2023/07/23 02:26:45;;;;;;;12.20;8.40;;;;;;;23.63;100.00;-17081.94;5072118;28;20670;-64
2023/07/23 02:29:12;;;;;;;11.38;8.82;;;;;;;23.71;100.00;-17732.78;5072663;28;20188;-63
2023/07/23 02:31:40;;;;;;;13.52;7.60;;;;;;;23.82;100.00;-17735.28;5072294;28;20551;-63
2023/07/23 02:34:06;;;;;;;9.73;7.32;;;;;;;23.71;100.00;-17083.66;5072124;28;20593;-63
2023/07/23 02:36:35;;;;;;;8.25;7.20;;;;;;;23.76;100.00;-17084.75;5072116;28;20192;-62
2023/07/23 02:39:03;;;;;;;9.88;6.45;;;;;;;23.72;100.00;-18057.44;5071961;28;20196;-62
2023/07/23 02:41:30;;;;;;;15.10;7.35;;;;;;;23.59;100.00;-18054.53;5071997;28;20188;-62
2023/07/23 02:43:57;;;;;;;10.45;6.97;;;;;;;23.76;100.00;-18058.34;5071688;28;20232;-62
2023/07/23 02:46:24;;;;;;;8.50;6.72;;;;;;;23.76;100.00;-18382.88;5071898;28;20547;-63
2023/07/23 02:48:52;;;;;;;11.02;6.85;;;;;;;23.92;100.00;-18386.78;5071502;28;20192;-62
2023/07/23 02:51:20;;;;;;;10.68;6.65;;;;;;;23.91;100.00;-18386.53;5071821;28;20532;-62
2023/07/23 02:53:47;;;;;;;11.25;6.38;;;;;;;23.85;100.00;-18385.13;5071756;28;20275;-64
2023/07/23 02:56:13;;;;;;;7.65;6.40;;;;;;;23.88;100.00;-18385.84;5071556;28;20562;-62
2023/07/23 02:58:40;;;;;;;7.07;6.18;;;;;;;23.87;100.00;-18387.50;5071050;28;20725;-63
2023/07/23 03:01:09;;;;;;;9.90;6.75;;;;;;;23.92;100.00;-18388.56;5071900;28;20635;-63
2023/07/23 03:03:36;;;;;;;6.35;5.95;;;;;;;23.86;100.00;-18387.13;5071667;28;20188;-62
2023/07/23 03:06:07;;;;;;;9.73;5.90;;;;;;;23.86;100.00;-18387.13;5071512;28;20204;-61
2023/07/23 03:08:33;;;;;;;10.88;6.88;;;;;;;24.03;100.00;-18391.28;5071640;28;20249;-63
2023/07/23 03:11:00;;;;;;;15.27;6.25;;;;;;;24.11;100.00;-18393.06;5071339;28;20185;-64
2023/07/23 03:13:27;;;;;;;6.95;6.32;;;;;;;24.10;100.00;-18392.94;5071510;28;20275;-64
2023/07/23 03:15:54;;;;;;;8.68;6.35;;;;;;;24.10;100.00;-18392.94;5071582;28;20554;-65
2023/07/23 03:18:21;;;;;;;7.65;6.18;;;;;;;24.30;100.00;-18397.47;5071331;28;20188;-63
2023/07/23 03:20:48;;;;;;;12.43;6.93;;;;;;;24.17;100.00;-18392.47;5071587;28;20203;-63
2023/07/23 03:23:16;;;;;;;7.13;6.03;;;;;;;24.19;100.00;-15794.19;5071207;28;20188;-63
2023/07/23 03:25:43;;;;;;;9.85;6.78;;;;;;;23.98;100.00;-18390.09;5071240;28;20193;-64
2023/07/23 03:28:10;;;;;;;8.05;6.72;;;;;;;24.57;100.00;-18403.84;5072001;28;20209;-63
2023/07/23 03:30:37;;;;;;;11.18;6.20;;;;;;;24.75;100.00;-14178.41;5075903;28;20187;-62
2023/07/23 03:33:04;;;;;;;8.55;6.53;;;;;;;24.65;100.00;-6684.41;5075465;28;20184;-64
2023/07/23 03:35:31;;;;;;;12.00;6.32;;;;;;;24.56;100.00;-9943.16;5075226;28;20319;-63
2023/07/23 03:37:58;;;;;;;16.65;7.10;;;;;;;24.68;100.00;-12549.78;5075084;28;20185;-62
2023/07/23 03:40:26;;;;;;;13.95;6.70;;;;;;;24.75;100.00;-13201.97;5075390;28;20188;-63
2023/07/23 03:42:53;;;;;;;11.18;7.07;;;;;;;24.73;100.00;-13852.63;5075030;28;20196;-63
2023/07/23 03:45:20;;;;;;;16.55;7.38;;;;;;;24.63;100.00;-2115.56;5075201;28;20563;-63
2023/07/23 03:47:47;;;;;;;10.23;6.85;;;;;;;24.66;100.00;-4074.41;5074685;28;20204;-63
2023/07/23 03:50:14;;;;;;;11.40;7.47;;;;;;;24.81;100.00;-8967.84;5075822;28;20615;-62
2023/07/23 03:52:41;;;;;;;15.65;8.18;;;;;;;24.89;100.00;-14506.16;5074682;28;20240;-63
2023/07/23 03:55:08;;;;;;;13.65;8.80;;;;;;;24.95;100.00;-11902.19;5075026;28;20184;-63
2023/07/23 03:57:36;;;;;;;14.02;9.75;;;;;;;24.87;100.00;-8642.38;5074719;28;20185;-64
2023/07/23 04:00:03;;;;;;;11.30;10.15;;;;;;;25.43;100.00;-4401.75;5074974;28;20558;-63
2023/07/23 04:02:30;;;;;;;20.13;11.10;;;;;;;25.86;100.00;2143.88;5074656;28;20238;-63
2023/07/23 04:04:57;;;;;;;11.05;9.90;;;;;;;26.00;100.00;7064.31;5074886;28;20185;-62
2023/07/23 04:07:24;;;;;;;15.77;10.07;;;;;;;26.07;100.00;7722.13;5056930;28;20243;-64
2023/07/23 04:09:51;;;;;;;14.13;8.93;;;;;;;26.21;100.00;7396.31;5074465;28;20196;-63
2023/07/23 04:12:18;;;;;;;10.30;9.30;;;;;;;26.41;100.00;11343.44;5075247;28;20192;-63
2023/07/23 04:14:46;;;;;;;14.93;8.88;;;;;;;26.59;100.00;16614.84;5074517;28;20188;-63
2023/07/23 04:17:13;;;;;;;16.35;9.63;;;;;;;26.74;100.00;30158.19;5074536;28;20181;-63
2023/07/23 04:19:40;;;;;;;11.75;9.88;;;;;;;26.94;100.00;47091.19;5074341;28;20195;-63
2023/07/23 04:22:07;;;;;;;13.95;9.30;;;;;;;27.13;100.00;64789.47;5074346;28;20194;-62
2023/07/23 04:24:34;;;;;;;13.80;9.43;;;;;;;27.40;100.00;77558.91;5074532;28;20212;-64
2023/07/23 04:27:00;;;;;;;13.68;10.88;;;;;;;27.66;100.00;83983.69;5074887;28;20185;-63
2023/07/23 04:29:27;;;;;;;16.60;12.07;;;;;;;27.84;100.00;87714.78;5074464;28;20180;-63
2023/07/23 04:31:55;;;;;;;19.55;12.20;;;;;;;27.80;100.00;87034.00;5074040;28;20188;-62
2023/07/23 04:34:22;;;;;;;14.90;12.93;;;;;;;27.53;100.00;86995.88;5074374;28;20185;-62
2023/07/23 04:36:51;;;;;;;20.58;12.48;;;;;;;27.49;100.00;67507.31;5074762;28;20235;-63
2023/07/23 04:39:18;;;;;;;18.05;12.60;;;;;;;27.51;100.00;63826.41;5073258;28;20280;-63
2023/07/23 04:41:45;;;;;;;19.38;13.00;;;;;;;27.39;100.00;66825.50;5073506;28;20181;-63
2023/07/23 04:44:12;;;;;;;24.20;11.70;;;;;;;27.35;100.00;64813.22;5073715;28;20200;-63
2023/07/23 04:46:39;;;;;;;14.80;10.82;;;;;;;27.07;100.00;40121.88;5073711;28;20185;-62
2023/07/23 04:49:08;;;;;;;18.50;10.40;;;;;;;27.14;100.00;40459.25;5073809;28;20211;-62
2023/07/23 04:51:35;;;;;;;18.50;11.00;;;;;;;27.44;100.00;51129.53;5073456;28;20229;-64
2023/07/23 04:54:01;;;;;;;21.50;10.45;;;;;;;27.76;100.00;55495.00;5073910;28;20559;-63
2023/07/23 04:56:28;;;;;;;10.10;9.27;;;;;;;27.80;100.00;69553.66;5073997;28;20671;-63
2023/07/23 04:58:55;;;;;;;15.27;9.10;;;;;;;27.58;100.00;56146.50;5074373;28;20185;-64
2023/07/23 05:01:22;;;;;;;16.20;8.82;;;;;;;27.24;100.00;46117.44;5073768;28;20642;-64
2023/07/23 05:03:49;;;;;;;16.45;7.47;;;;;;;27.23;100.00;53444.22;5073709;28;20189;-63
2023/07/23 05:06:17;;;;;;;15.38;8.48;;;;;;;27.23;100.00;64131.47;5073439;28;20200;-63
2023/07/23 05:08:46;;;;;;;8.63;7.30;;;;;;;27.14;100.00;61112.47;5073469;28;20224;-61
2023/07/23 05:11:13;;;;;;;11.00;6.93;;;;;;;27.14;100.00;64455.53;5073523;28;20525;-62
2023/07/23 05:13:40;;;;;;;13.38;7.57;;;;;;;27.30;100.00;68824.53;5073369;28;20189;-62
2023/07/23 05:16:07;;;;;;;13.07;7.05;;;;;;;27.54;100.00;95429.78;5073358;28;20189;-63
2023/07/23 05:18:34;;;;;;;9.38;6.63;;;;;;;27.50;100.00;84297.56;5073294;28;20181;-63
2023/07/23 05:21:03;;;;;;;12.98;7.38;;;;;;;27.75;100.00;101548.91;5074019;28;20200;-63
2023/07/23 05:23:33;;;;;;;10.63;7.90;;;;;;;27.95;100.00;111414.19;5073954;28;20535;-62
2023/07/23 05:26:03;;;;;;;10.05;7.85;;;;;;;28.15;100.00;108395.66;5073378;28;20184;-63
2023/07/23 05:28:30;;;;;;;13.73;7.45;;;;;;;28.31;100.00;153164.16;5073112;28;20208;-63
2023/07/23 05:31:00;;;;;;;16.48;7.13;;;;;;;28.45;100.00;139820.31;5073307;28;20572;-62
2023/07/23 05:33:27;;;;;;;19.67;8.02;;;;;;;28.88;100.00;153308.91;5073496;28;20185;-63
2023/07/23 05:35:54;;;;;;;8.32;7.30;;;;;;;29.03;100.00;153346.03;5072509;28;20202;-62
2023/07/23 05:38:21;;;;;;;13.75;7.25;;;;;;;29.18;100.00;153384.47;5073245;28;20239;-62
2023/07/23 05:40:55;;;;;;;10.23;6.55;;;;;;;29.36;100.00;153430.66;5073078;28;20185;-62
2023/07/23 05:43:22;;;;;;;15.20;6.43;;;;;;;29.67;100.00;153507.47;5073105;28;20193;-62
2023/07/23 05:45:50;;;;;;;19.80;6.95;;;;;;;29.85;100.00;153553.63;5055339;28;20192;-62
2023/07/23 05:48:17;;;;;;;11.88;6.68;;;;;;;29.91;100.00;153570.34;5072909;28;20208;-62
2023/07/23 05:50:44;;;;;;;12.48;6.38;;;;;;;29.91;100.00;153569.06;5072569;28;20658;-61
2023/07/23 05:53:11;;;;;;;7.60;5.88;;;;;;;29.90;100.00;153566.50;5072517;28;20236;-64
2023/07/23 05:55:38;;;;;;;9.77;6.15;;;;;;;30.06;100.00;153607.47;5055135;28;20550;-63
2023/07/23 05:58:07;;;;;;;7.15;6.53;;;;;;;29.65;100.00;153502.38;5072710;28;20595;-62
2023/07/23 06:00:34;;;;;;;11.13;6.28;;;;;;;30.11;100.00;153619.03;5072600;28;20523;-62
2023/07/23 06:03:01;;;;;;;8.10;6.90;;;;;;;29.94;100.00;153576.75;5054973;28;20181;-61
2023/07/23 06:05:28;;;;;;;6.60;5.82;;;;;;;30.48;100.00;153713.91;5072707;28;20594;-63
2023/07/23 06:07:55;;;;;;;19.23;6.72;;;;;;;30.77;100.00;153786.97;5072754;28;20220;-62
2023/07/23 06:10:23;;;;;;;8.65;6.10;;;;;;;30.81;100.00;153798.50;5072716;28;20195;-62
2023/07/23 06:12:50;;;;;;;12.23;6.65;;;;;;;31.43;100.00;153955.03;5072151;28;20184;-61
2023/07/23 06:15:20;;;;;;;8.30;6.38;;;;;;;31.74;100.00;154033.34;5072296;28;20188;-62
2023/07/23 06:17:47;;;;;;;8.57;6.43;;;;;;;31.90;100.00;154074.38;5073033;28;20624;-62
2023/07/23 06:20:14;;;;;;;7.88;5.72;;;;;;;32.28;100.00;154169.34;5072465;28;20626;-62
2023/07/23 06:22:41;;;;;;;7.68;5.75;;;;;;;32.39;100.00;154198.84;5072386;28;20193;-62
2023/07/23 06:25:09;;;;;;;10.50;7.07;;;;;;;32.66;100.00;154265.66;5072611;28;20192;-63
2023/07/23 06:27:38;;;;;;;6.55;5.95;;;;;;;32.76;100.00;154292.56;5072259;28;20567;-62
2023/07/23 06:30:05;;;;;;;6.63;6.03;;;;;;;32.84;100.00;154311.88;5071996;28;20215;-63
2023/07/23 06:32:34;;;;;;;17.90;6.55;;;;;;;32.70;100.00;154275.91;5071911;28;20192;-62
2023/07/23 06:35:00;;;;;;;16.23;6.80;;;;;;;32.44;100.00;154211.69;5071878;28;20189;-62
2023/07/23 06:37:27;;;;;;;8.77;6.30;;;;;;;32.37;100.00;154193.75;5072099;28;20536;-63
2023/07/23 06:39:54;;;;;;;7.50;6.88;;;;;;;32.58;100.00;154247.66;5071748;28;20189;-62
2023/07/23 06:42:21;;;;;;;7.68;6.68;;;;;;;32.77;100.00;154293.88;5071730;28;20192;-62
2023/07/23 06:44:48;;;;;;;6.63;5.95;;;;;;;32.94;100.00;154337.50;5072140;28;20652;-62
2023/07/23 06:47:15;;;;;;;6.40;5.88;;;;;;;32.99;100.00;154351.66;5071635;28;20690;-63
2023/07/23 06:49:43;;;;;;;6.40;5.75;;;;;;;33.50;100.00;154480.06;5071611;28;20201;-63
2023/07/23 06:52:10;;;;;;;6.28;5.65;;;;;;;33.98;100.00;154602.16;5071747;28;20725;-62
2023/07/23 06:54:40;;;;;;;6.35;5.85;;;;;;;34.25;100.00;154671.53;5071638;28;20181;-62
2023/07/23 06:57:10;;;;;;;9.57;6.07;;;;;;;34.33;100.00;154690.84;5071903;28;20701;-61
2023/07/23 06:59:37;;;;;;;6.70;6.15;;;;;;;33.87;100.00;154573.84;5071816;28;20561;-63
2023/07/23 07:02:04;;;;;;;10.40;5.78;;;;;;;33.82;100.00;154562.28;5071378;28;20199;-62
2023/07/23 07:04:31;;;;;;;6.63;5.72;;;;;;;33.89;100.00;154580.31;5070908;28;20184;-62
2023/07/23 07:06:59;;;;;;;6.72;6.05;;;;;;;34.14;100.00;154641.94;5071565;28;20196;-62
2023/07/23 07:09:26;;;;;;;8.23;6.00;;;;;;;34.32;100.00;154688.25;5071307;28;20205;-63
2023/07/23 07:11:54;;;;;;;7.15;5.80;;;;;;;34.56;100.00;154748.63;5071668;28;20555;-63
2023/07/23 07:14:21;;;;;;;6.68;6.13;;;;;;;34.98;100.00;154855.31;5071374;28;20220;-63
2023/07/23 07:16:48;;;;;;;7.72;6.63;;;;;;;34.81;100.00;154814.19;5071245;28;20192;-62
2023/07/23 07:19:15;;;;;;;7.72;6.28;;;;;;;34.79;100.00;154809.09;5071686;28;20204;-63
2023/07/23 07:21:41;;;;;;;7.15;5.70;;;;;;;34.25;100.00;154670.25;5071525;28;20188;-63
2023/07/23 07:24:10;;;;;;;5.72;4.85;;;;;;;34.12;100.00;154636.84;5071580;28;20211;-62
2023/07/23 07:26:36;;;;;;;8.45;5.65;;;;;;;34.07;100.00;154623.97;5071203;28;20199;-63
2023/07/23 07:29:03;;;;;;;6.07;5.45;;;;;;;34.03;100.00;154613.69;5071164;28;20245;-63
2023/07/23 07:31:30;;;;;;;6.22;5.75;;;;;;;34.08;100.00;154626.50;5071161;28;20239;-63
2023/07/23 07:33:58;;;;;;;8.80;5.95;;;;;;;34.16;100.00;154647.16;5071533;28;20551;-63
2023/07/23 07:36:25;;;;;;;7.85;6.60;;;;;;;34.01;100.00;154609.84;5071008;28;20189;-63
2023/07/23 07:38:52;;;;;;;6.82;5.75;;;;;;;34.30;100.00;154683.09;5071421;28;20606;-63
2023/07/23 07:41:20;;;;;;;6.97;6.28;;;;;;;34.36;100.00;154698.53;5070999;28;20196;-62
2023/07/23 07:43:47;;;;;;;6.38;5.95;;;;;;;34.46;100.00;154722.94;5070929;28;20185;-63
2023/07/23 07:46:15;;;;;;;7.07;6.05;;;;;;;34.46;100.00;154722.94;5071014;28;20185;-62
2023/07/23 07:48:42;;;;;;;8.13;5.85;;;;;;;34.56;100.00;154748.63;5070991;28;20236;-63
2023/07/23 07:51:10;;;;;;;6.53;5.95;;;;;;;34.72;100.00;154791.06;5071129;28;20216;-63
2023/07/23 07:53:39;;;;;;;6.85;5.50;;;;;;;34.50;100.00;154734.47;5053578;28;20188;-63
2023/07/23 07:56:13;;;;;;;6.53;6.07;;;;;;;34.83;100.00;154819.34;5071260;28;20685;-62
2023/07/23 07:58:42;;;;;;;7.30;6.00;;;;;;;34.85;100.00;154824.47;5071004;28;20185;-63
2023/07/23 08:01:09;;;;;;;6.70;5.95;;;;;;;34.93;100.00;154842.44;5070930;28;20231;-61
2023/07/23 08:03:37;;;;;;;6.63;5.97;;;;;;;35.24;100.00;154922.19;5071216;28;20196;-63
2023/07/23 08:06:04;;;;;;;5.15;4.95;;;;;;;35.70;100.00;155040.50;5071234;28;20268;-62
2023/07/23 08:08:33;;;;;;;6.32;5.53;;;;;;;36.13;100.00;155148.56;5070713;28;20213;-61
2023/07/23 08:11:01;;;;;;;5.43;5.03;;;;;;;35.93;100.00;155097.09;5070813;28;20192;-62
2023/07/23 08:13:30;;;;;;;6.43;5.90;;;;;;;36.46;100.00;155233.44;5070757;28;20207;-63
2023/07/23 08:15:58;;;;;;;6.63;5.43;;;;;;;36.93;98.32;155351.81;5074580;28;20184;-62
2023/07/23 08:18:25;;;;;;;5.75;5.40;;;;;;;37.26;93.20;155436.78;5074657;28;20681;-64
2023/07/23 08:20:54;;;;;;;5.32;4.88;;;;;;;36.93;92.54;155353.09;5074799;28;20628;-63
2023/07/23 08:23:21;;;;;;;5.40;5.00;;;;;;;37.14;94.54;155404.59;5074233;28;20189;-63
2023/07/23 08:25:52;;;;;;;6.30;5.90;;;;;;;37.44;90.83;155481.81;5074244;28;20185;-63
2023/07/23 08:28:23;;;;;;;5.80;5.60;;;;;;;37.43;87.63;155480.53;5074591;28;20189;-62
2023/07/23 08:30:50;;;;;;;5.90;5.55;;;;;;;37.27;92.64;155438.06;5074170;28;20185;-63
2023/07/23 08:33:19;;;;;;;6.05;5.50;;;;;;;36.88;95.22;155340.22;5074490;28;20697;-63
2023/07/23 08:35:47;;;;;;;6.03;5.47;;;;;;;36.79;93.72;155315.81;5074204;28;20196;-62
2023/07/23 08:38:15;;;;;;;5.90;5.40;;;;;;;36.38;99.09;155212.88;5073954;28;20185;-63
2023/07/23 08:40:44;;;;;;;5.82;5.38;;;;;;;36.11;96.58;155143.44;5074440;28;20181;-62
2023/07/23 08:44:01;;;;;;;5.65;5.35;;;;;;;35.84;97.89;155073.94;5074187;28;20701;-63
2023/07/23 08:46:28;;;;;;;9.68;5.50;;;;;;;35.61;99.09;155017.31;5073999;28;20188;-62
2023/07/23 08:49:08;;;;;;;5.55;5.30;;;;;;;35.38;100.00;154956.91;5074189;28;20299;-63
2023/07/23 08:51:43;;;;;;;6.22;5.75;;;;;;;35.02;100.00;154865.59;5073821;28;20226;-63
2023/07/23 08:54:10;;;;;;;6.53;6.13;;;;;;;35.17;100.00;154904.22;5073658;28;20201;-63
2023/07/23 08:56:39;;;;;;;6.05;5.55;;;;;;;34.80;100.00;154810.31;5073719;28;20189;-61
2023/07/23 08:59:07;;;;;;;7.07;5.60;;;;;;;34.84;100.00;154821.91;5055739;28;20192;-63
2023/07/23 09:01:36;;;;;;;7.00;6.07;;;;;;;34.57;100.00;154751.19;5073336;28;20188;-63
2023/07/23 09:04:04;;;;;;;5.53;5.13;;;;;;;34.42;100.00;154715.22;5073835;28;20555;-62
2023/07/23 09:06:33;;;;;;;5.78;5.50;;;;;;;34.42;100.00;154713.91;5073905;28;20192;-64
2023/07/23 09:09:10;;;;;;;10.27;6.00;;;;;;;34.16;100.00;154648.41;5073633;28;20598;-62
2023/07/23 09:11:37;;;;;;;5.78;5.45;;;;;;;34.12;100.00;154636.84;5073495;28;20196;-63
2023/07/23 09:14:08;;;;;;;6.88;6.35;;;;;;;34.07;100.00;154623.97;5073307;28;20559;-64
2023/07/23 09:16:37;;;;;;;6.15;5.85;;;;;;;33.90;100.00;154582.88;5073651;28;20192;-64
2023/07/23 09:19:04;;;;;;;6.55;5.65;;;;;;;33.86;100.00;154571.31;5073408;28;20184;-64
2023/07/23 09:21:32;;;;;;;6.43;5.70;;;;;;;33.75;100.00;154544.31;5073197;28;20185;-63
2023/07/23 09:24:02;;;;;;;6.60;6.03;;;;;;;33.38;100.00;154450.56;5073062;28;20238;-62
2023/07/23 09:26:29;;;;;;;7.40;6.78;;;;;;;33.12;100.00;154383.75;5072786;28;20176;-63
2023/07/23 09:28:59;;;;;;;6.28;5.78;;;;;;;32.92;100.00;154332.41;5073112;28;20223;-62
2023/07/23 09:31:29;;;;;;;11.15;6.80;;;;;;;32.96;100.00;154343.97;5072905;28;20216;-63
2023/07/23 09:33:57;;;;;;;6.72;6.15;;;;;;;33.35;100.00;154442.88;5072875;28;20284;-63
2023/07/23 09:36:25;;;;;;;6.95;6.35;;;;;;;33.72;100.00;154536.63;5073248;28;20560;-62
2023/07/23 09:38:58;;;;;;;6.05;5.65;;;;;;;33.93;100.00;154589.28;5072836;28;20260;-64
2023/07/23 09:41:30;;;;;;;6.57;6.18;;;;;;;33.75;100.00;154543.03;5072784;28;20560;-63
2023/07/23 09:44:00;;;;;;;6.25;5.80;;;;;;;33.60;100.00;154504.47;5073025;28;20216;-63
2023/07/23 09:46:27;;;;;;;5.57;5.32;;;;;;;33.80;100.00;154557.19;5072693;28;20184;-63
2023/07/23 09:48:54;;;;;;;7.00;6.45;;;;;;;34.03;100.00;154613.69;5072569;28;20215;-62
2023/07/23 09:51:21;;;;;;;6.15;5.85;;;;;;;34.07;100.00;154625.28;5072730;28;20184;-63
2023/07/23 09:53:48;;;;;;;7.00;6.45;;;;;;;34.01;100.00;154608.53;5072885;28;20563;-63
2023/07/23 09:56:17;;;;;;;6.78;6.18;;;;;;;33.99;100.00;154603.44;5072486;28;20196;-63
2023/07/23 09:58:47;;;;;;;7.32;6.57;;;;;;;34.01;100.00;154608.53;5072981;28;20215;-63
2023/07/23 10:01:15;;;;;;;7.10;6.22;;;;;;;34.25;100.00;154671.53;5054773;28;20185;-62
2023/07/23 10:03:44;;;;;;;6.32;5.88;;;;;;;34.14;100.00;154641.94;5072260;28;20189;-63
2023/07/23 10:06:11;;;;;;;7.25;6.65;;;;;;;34.27;100.00;154676.69;5072500;28;20193;-62
2023/07/23 10:08:41;;;;;;;6.97;6.47;;;;;;;34.55;100.00;154746.03;5072053;28;20193;-63
2023/07/23 10:11:08;;;;;;;6.13;5.80;;;;;;;34.88;100.00;154829.63;5072516;28;20188;-62
2023/07/23 10:13:37;;;;;;;6.63;6.10;;;;;;;34.99;100.00;154859.19;5072193;28;20189;-62
2023/07/23 10:16:07;;;;;;;6.00;5.60;;;;;;;35.12;100.00;154891.31;5072124;28;20188;-63
2023/07/23 10:18:38;;;;;;;5.85;5.30;;;;;;;35.66;100.00;155028.94;5072207;28;20185;-63
2023/07/23 10:21:06;;;;;;;5.70;5.30;;;;;;;35.88;90.96;155084.22;5072562;28;20188;-63
2023/07/23 10:23:33;;;;;;;5.85;5.55;;;;;;;36.01;90.88;155117.66;5072210;28;20635;-63
2023/07/23 10:26:20;;;;;;;4.57;4.38;;;;;;;36.39;92.72;155215.44;5072083;28;20559;-63
2023/07/23 10:28:49;;;;;;;5.10;4.78;;;;;;;36.55;87.10;155256.59;5071984;28;20606;-63
2023/07/23 10:31:21;;;;;;;5.43;5.13;;;;;;;36.61;86.23;155270.81;5071741;28;20185;-63
2023/07/23 10:33:50;;;;;;;5.10;4.90;;;;;;;36.32;81.70;155197.47;5072046;28;20657;-63
2023/07/23 10:36:18;;;;;;;4.55;4.35;;;;;;;36.18;84.38;155161.44;5072073;28;20554;-63
2023/07/23 10:38:45;;;;;;;6.40;4.85;;;;;;;36.01;86.82;155117.66;5070631;28;20208;-62
2023/07/23 10:41:12;;;;;;;6.32;4.68;;;;;;;36.22;91.79;155171.72;5072087;28;20547;-62
2023/07/23 10:43:44;;;;;;;4.90;4.50;;;;;;;36.38;91.04;155212.88;5071599;28;20188;-63
2023/07/23 10:46:14;;;;;;;5.07;4.75;;;;;;;36.06;86.33;155131.81;5071967;28;20562;-63
2023/07/23 10:48:43;;;;;;;5.97;4.75;;;;;;;36.01;91.06;155118.94;5071826;28;20224;-63
2023/07/23 10:51:12;;;;;;;4.93;4.72;;;;;;;35.88;90.85;155085.53;5071550;28;20214;-63
2023/07/23 10:53:53;;;;;;;4.55;4.35;;;;;;;35.86;89.01;155080.34;5071410;28;20192;-63
2023/07/23 10:56:30;;;;;;;5.00;4.32;;;;;;;35.89;89.03;155086.81;5071880;28;20246;-63
2023/07/23 10:59:02;;;;;;;4.70;4.40;;;;;;;35.63;87.28;155021.19;5071439;28;20199;-63
2023/07/23 11:01:35;;;;;;;5.25;3.85;;;;;;;35.29;89.77;154935.06;5071389;28;20192;-63
2023/07/23 11:04:08;;;;;;;4.68;4.38;;;;;;;35.06;91.86;154875.88;5071465;28;20199;-63
2023/07/23 11:06:35;;;;;;;5.10;4.28;;;;;;;35.05;94.31;154873.34;5071780;28;20555;-63
2023/07/23 11:09:10;;;;;;;4.05;3.90;;;;;;;35.14;94.03;154896.44;5071135;28;20185;-63
2023/07/23 11:11:40;;;;;;;3.80;3.70;;;;;;;34.83;92.41;154818.06;5071690;28;20184;-63
2023/07/23 11:14:20;;;;;;;4.07;3.75;;;;;;;34.75;91.87;154798.81;5071271;28;20200;-62
2023/07/23 11:16:49;;;;;;;5.35;4.25;;;;;;;34.77;98.62;154803.91;5071471;28;20527;-63
2023/07/23 11:19:17;;;;;;;4.90;3.83;;;;;;;34.79;94.86;154809.09;5071283;28;20189;-63